createdAt,value
2023-03-29T00:01:07.532Z,6.60
2023-03-29T00:03:36.794Z,7.00
2023-03-29T00:06:05.847Z,6.70
2023-03-29T00:08:34.414Z,6.60
2023-03-29T00:11:03.081Z,7.30
2023-03-29T00:13:31.799Z,6.50
2023-03-29T00:16:00.216Z,6.90
2023-03-29T00:18:28.772Z,7.80
2023-03-29T00:20:58.277Z,6.90
2023-03-29T00:23:26.844Z,6.70
2023-03-29T00:25:56.607Z,6.80
2023-03-29T00:28:25.368Z,7.00
2023-03-29T00:31:03.894Z,7.30
2023-03-29T00:33:33.253Z,7.10
2023-03-29T00:36:02.131Z,7.00
2023-03-29T00:38:31.546Z,6.90
2023-03-29T00:41:00.644Z,5.90
2023-03-29T00:43:29.374Z,7.10
2023-03-29T00:45:57.733Z,7.10
2023-03-29T00:48:30.332Z,6.50
2023-03-29T00:51:10.347Z,6.20
2023-03-29T00:53:44.528Z,6.20
2023-03-29T00:56:19.635Z,6.80
2023-03-29T00:58:57.469Z,6.10
2023-03-29T01:01:34.257Z,6.20
2023-03-29T01:04:18.939Z,6.10
2023-03-29T01:06:55.677Z,5.70
2023-03-29T01:09:27.470Z,6.60
2023-03-29T01:11:59.394Z,6.40
2023-03-29T01:15:03.791Z,5.50
2023-03-29T01:17:33.320Z,5.30
2023-03-29T01:20:27.257Z,5.70
2023-03-29T01:23:14.368Z,5.60
2023-03-29T01:26:10.057Z,5.50
2023-03-29T01:29:17.917Z,5.50
2023-03-29T01:31:51.865Z,5.40
2023-03-29T01:34:27.533Z,5.90
2023-03-29T01:37:04.745Z,5.80
2023-03-29T01:39:35.178Z,5.70
2023-03-29T01:42:14.683Z,6.00
2023-03-29T01:44:52.355Z,5.70
2023-03-29T01:47:23.857Z,5.80
2023-03-29T01:50:22.149Z,5.80
2023-03-29T01:53:03.587Z,5.00
2023-03-29T01:55:36.125Z,5.40
2023-03-29T01:58:08.586Z,5.30
2023-03-29T02:00:38.675Z,5.60
2023-03-29T02:03:10.584Z,5.60
2023-03-29T02:08:12.130Z,5.30
2023-03-29T02:10:40.767Z,5.80
2023-03-29T02:13:09.451Z,5.50
2023-03-29T02:15:38.735Z,6.40
2023-03-29T02:18:07.312Z,6.70
2023-03-29T02:20:39.288Z,5.70
2023-03-29T02:23:29.041Z,6.10
2023-03-29T02:25:57.921Z,6.10
2023-03-29T02:28:28.391Z,5.10
2023-03-29T02:31:09.187Z,5.80
2023-03-29T02:33:47.665Z,6.10
2023-03-29T02:36:22.843Z,10.30
2023-03-29T02:38:53.537Z,8.20
2023-03-29T02:41:25.745Z,8.40
2023-03-29T02:43:57.242Z,7.60
2023-03-29T02:46:26.430Z,6.10
2023-03-29T02:48:57.689Z,5.70
2023-03-29T02:51:32.299Z,8.20
2023-03-29T02:54:06.815Z,5.50
2023-03-29T02:57:06.558Z,6.40
2023-03-29T02:59:36.016Z,7.10
2023-03-29T03:02:05.575Z,6.80
2023-03-29T03:04:35.706Z,7.40
2023-03-29T03:07:07.301Z,6.80
2023-03-29T03:09:35.962Z,8.00
2023-03-29T03:12:04.472Z,7.30
2023-03-29T03:14:32.846Z,5.40
2023-03-29T03:17:04.442Z,5.20
2023-03-29T03:19:34.135Z,5.10
2023-03-29T03:22:03.373Z,4.70
2023-03-29T03:24:32.808Z,4.80
2023-03-29T03:27:01.872Z,4.60
2023-03-29T03:29:30.429Z,4.40
2023-03-29T03:31:59.091Z,4.10
2023-03-29T03:34:57.136Z,4.10
2023-03-29T03:37:27.794Z,3.80
2023-03-29T03:39:56.714Z,4.50
2023-03-29T03:42:30.747Z,4.20
2023-03-29T03:44:59.415Z,4.20
2023-03-29T03:47:43.350Z,4.20
2023-03-29T03:52:53.495Z,4.40
2023-03-29T03:55:22.244Z,4.50
2023-03-29T04:00:23.707Z,4.40
2023-03-29T04:03:06.288Z,4.30
2023-03-29T04:05:40.101Z,4.40
2023-03-29T04:08:09.079Z,4.40
2023-03-29T04:10:58.569Z,4.50
2023-03-29T04:13:36.403Z,4.10
2023-03-29T04:16:27.886Z,5.20
2023-03-29T04:18:57.583Z,4.70
2023-03-29T04:21:26.333Z,5.00
2023-03-29T04:23:55.037Z,4.80
2023-03-29T04:26:24.081Z,4.70
2023-03-29T04:28:59.004Z,5.00
2023-03-29T04:31:48.676Z,4.60
2023-03-29T04:34:38.125Z,4.90
2023-03-29T04:37:10.802Z,5.70
2023-03-29T04:39:40.002Z,5.80
2023-03-29T04:42:09.702Z,5.70
2023-03-29T04:44:38.152Z,5.70
2023-03-29T04:47:07.618Z,6.40
2023-03-29T04:49:58.428Z,5.20
2023-03-29T04:52:36.364Z,5.40
2023-03-29T04:55:07.261Z,5.30
2023-03-29T04:57:53.812Z,5.70
2023-03-29T05:00:29.446Z,5.40
2023-03-29T05:02:58.200Z,5.80
2023-03-29T05:05:27.198Z,5.10
2023-03-29T05:07:56.076Z,4.90
2023-03-29T05:10:29.162Z,5.40
2023-03-29T05:12:58.485Z,5.30
2023-03-29T05:15:27.370Z,5.70
2023-03-29T05:17:56.375Z,5.20
2023-03-29T05:20:25.233Z,5.60
2023-03-29T05:22:56.387Z,6.90
2023-03-29T05:25:51.657Z,5.90
2023-03-29T05:28:20.143Z,6.60
2023-03-29T05:31:00.261Z,5.80
2023-03-29T05:33:29.579Z,8.00
2023-03-29T05:36:04.206Z,8.10
2023-03-29T05:38:35.941Z,7.80
2023-03-29T05:41:04.675Z,7.40
2023-03-29T05:43:42.801Z,7.70
2023-03-29T05:46:12.484Z,7.60
2023-03-29T05:48:44.256Z,8.30
2023-03-29T05:51:13.208Z,7.80
2023-03-29T05:53:41.853Z,8.00
2023-03-29T05:56:11.437Z,7.80
2023-03-29T05:58:39.961Z,7.00
2023-03-29T06:01:15.059Z,7.00
2023-03-29T06:03:51.353Z,7.60
2023-03-29T06:06:21.472Z,7.20
2023-03-29T06:08:50.747Z,7.00
2023-03-29T06:11:26.602Z,7.10
2023-03-29T06:14:13.976Z,6.90
2023-03-29T06:16:47.566Z,7.20
2023-03-29T06:19:16.184Z,7.10
2023-03-29T06:21:44.841Z,6.90
2023-03-29T06:24:15.971Z,6.20
2023-03-29T06:26:48.232Z,6.60
2023-03-29T06:29:17.212Z,6.60
2023-03-29T06:31:47.789Z,6.20
2023-03-29T06:34:33.098Z,6.10
2023-03-29T06:37:11.622Z,5.70
2023-03-29T06:39:41.266Z,6.40
2023-03-29T06:42:27.246Z,6.60
2023-03-29T06:45:14.421Z,6.20
2023-03-29T06:47:47.373Z,6.40
2023-03-29T06:50:17.600Z,6.60
2023-03-29T06:53:06.381Z,6.20
2023-03-29T06:55:36.215Z,6.20
2023-03-29T06:58:20.871Z,6.40
2023-03-29T07:00:49.677Z,5.40
2023-03-29T07:03:25.426Z,6.20
2023-03-29T07:06:04.638Z,5.90
2023-03-29T07:08:35.361Z,5.50
2023-03-29T07:11:08.828Z,4.60
2023-03-29T07:13:49.317Z,5.00
2023-03-29T07:16:20.704Z,4.90
2023-03-29T07:18:57.610Z,5.60
2023-03-29T07:21:58.944Z,4.70
2023-03-29T07:24:44.551Z,4.00
2023-03-29T07:27:13.690Z,3.40
2023-03-29T07:29:42.294Z,4.00
2023-03-29T07:32:10.876Z,6.00
2023-03-29T07:34:46.672Z,9.60
2023-03-29T07:37:39.857Z,4.50
2023-03-29T07:40:16.151Z,4.00
2023-03-29T07:43:09.534Z,5.70
2023-03-29T07:45:40.865Z,5.80
2023-03-29T07:48:11.496Z,4.00
2023-03-29T07:50:48.697Z,7.80
2023-03-29T07:53:17.582Z,4.80
2023-03-29T07:55:49.371Z,4.20
2023-03-29T07:58:38.115Z,9.60
2023-03-29T08:01:08.690Z,4.70
2023-03-29T08:04:09.954Z,4.00
2023-03-29T08:06:57.177Z,4.00
2023-03-29T08:09:32.216Z,4.40
2023-03-29T08:12:00.806Z,3.30
2023-03-29T08:14:34.830Z,3.60
2023-03-29T08:17:07.893Z,3.30
2023-03-29T08:19:41.791Z,3.70
2023-03-29T08:22:22.634Z,3.70
2023-03-29T08:25:17.028Z,3.70
2023-03-29T08:30:23.436Z,5.20
2023-03-29T08:32:55.152Z,4.50
2023-03-29T08:35:24.453Z,3.90
2023-03-29T08:38:05.726Z,5.10
2023-03-29T08:40:35.109Z,6.30
2023-03-29T08:43:38.054Z,3.80
2023-03-29T08:46:57.104Z,3.50
2023-03-29T08:49:34.425Z,3.60
2023-03-29T08:52:13.448Z,3.50
2023-03-29T08:54:46.703Z,3.40
2023-03-29T08:57:33.817Z,3.60
2023-03-29T09:00:10.806Z,3.70
2023-03-29T09:02:42.980Z,3.30
2023-03-29T09:05:14.784Z,3.20
2023-03-29T09:07:46.307Z,5.70
2023-03-29T09:10:18.433Z,3.30
2023-03-29T09:13:02.854Z,4.10
2023-03-29T09:15:42.550Z,3.10
2023-03-29T09:18:45.474Z,3.70
2023-03-29T09:21:26.828Z,4.40
2023-03-29T09:24:15.859Z,3.90
2023-03-29T09:26:54.991Z,3.90
2023-03-29T09:29:52.486Z,4.00
2023-03-29T09:32:33.250Z,3.70
2023-03-29T09:35:38.839Z,3.60
2023-03-29T09:38:12.643Z,3.60
2023-03-29T09:40:50.077Z,3.50
2023-03-29T09:43:38.149Z,3.50
2023-03-29T09:46:37.433Z,3.50
2023-03-29T09:49:11.172Z,3.20
2023-03-29T09:51:42.103Z,2.70
2023-03-29T09:54:12.651Z,4.40
2023-03-29T09:57:20.424Z,1.90
2023-03-29T09:59:52.735Z,2.20
2023-03-29T10:02:21.971Z,2.30
2023-03-29T10:05:04.080Z,2.10
2023-03-29T10:10:35.622Z,2.00
2023-03-29T10:13:16.755Z,3.40
2023-03-29T10:15:45.311Z,1.90
2023-03-29T10:18:14.309Z,1.80
2023-03-29T10:20:42.800Z,2.10
2023-03-29T10:23:18.833Z,2.40
2023-03-29T10:25:47.660Z,3.60
2023-03-29T10:28:18.784Z,2.00
2023-03-29T10:30:54.383Z,1.80
2023-03-29T10:33:24.823Z,1.70
2023-03-29T10:35:57.596Z,2.20
2023-03-29T10:38:29.500Z,2.10
2023-03-29T10:41:12.545Z,2.40
2023-03-29T10:43:49.525Z,2.80
2023-03-29T10:46:30.643Z,2.40
2023-03-29T10:49:16.065Z,2.50
2023-03-29T10:51:47.247Z,2.30
2023-03-29T10:54:20.562Z,1.90
2023-03-29T10:57:01.585Z,1.90
2023-03-29T11:00:02.666Z,2.10
2023-03-29T11:02:31.702Z,2.20
2023-03-29T11:05:16.589Z,2.00
2023-03-29T11:07:47.586Z,2.30
2023-03-29T11:10:43.620Z,2.00
2023-03-29T11:13:41.343Z,2.20
2023-03-29T11:16:18.846Z,2.00
2023-03-29T11:19:20.735Z,1.90
2023-03-29T11:22:11.098Z,2.10
2023-03-29T11:25:06.852Z,1.90
2023-03-29T11:28:09.753Z,2.50
2023-03-29T11:30:40.871Z,2.70
2023-03-29T11:33:15.103Z,2.40
2023-03-29T11:36:04.853Z,2.30
2023-03-29T11:38:45.220Z,2.30
2023-03-29T11:41:39.092Z,2.50
2023-03-29T11:44:19.574Z,2.00
2023-03-29T11:47:23.288Z,2.20
2023-03-29T11:49:58.191Z,2.20
2023-03-29T11:52:47.479Z,2.00
2023-03-29T11:55:26.243Z,2.10
2023-03-29T11:58:00.129Z,2.00
2023-03-29T12:00:39.040Z,2.00
2023-03-29T12:03:14.478Z,2.00
2023-03-29T12:05:50.932Z,2.00
2023-03-29T12:08:23.930Z,2.30
2023-03-29T12:10:56.860Z,1.90
2023-03-29T12:13:32.486Z,1.90
2023-03-29T12:16:16.786Z,2.00
2023-03-29T12:18:58.457Z,2.10
2023-03-29T12:21:30.265Z,2.10
2023-03-29T12:24:01.084Z,2.10
2023-03-29T12:26:33.879Z,2.10
2023-03-29T12:29:27.192Z,1.90
2023-03-29T12:32:36.474Z,2.00
2023-03-29T12:35:49.776Z,2.00
2023-03-29T12:38:46.169Z,2.00
2023-03-29T12:41:37.919Z,2.00
2023-03-29T12:44:25.155Z,2.10
2023-03-29T12:47:25.955Z,2.10
2023-03-29T12:49:59.809Z,1.90
2023-03-29T12:52:36.467Z,2.10
2023-03-29T12:55:47.055Z,1.80
2023-03-29T12:58:38.975Z,1.80
2023-03-29T13:04:00.850Z,1.90
2023-03-29T13:06:34.531Z,1.90
2023-03-29T13:09:23.251Z,2.00
2023-03-29T13:11:53.787Z,1.80
2023-03-29T13:14:30.130Z,1.80
2023-03-29T13:19:45.071Z,2.00
2023-03-29T13:22:19.332Z,2.00
2023-03-29T13:25:15.773Z,1.80
2023-03-29T13:27:44.188Z,1.80
2023-03-29T13:30:45.549Z,1.90
2023-03-29T13:33:37.191Z,2.00
2023-03-29T13:36:08.986Z,2.20
2023-03-29T13:38:53.621Z,2.00
2023-03-29T13:41:33.910Z,1.80
2023-03-29T13:44:02.692Z,2.00
2023-03-29T13:46:43.707Z,2.00
2023-03-29T13:49:14.734Z,1.90
2023-03-29T13:51:54.817Z,2.00
2023-03-29T13:54:43.103Z,1.90
2023-03-29T13:57:19.103Z,2.00
2023-03-29T14:00:18.347Z,2.40
2023-03-29T14:03:01.819Z,2.20
2023-03-29T14:05:37.565Z,1.90
2023-03-29T14:08:22.001Z,2.10
2023-03-29T14:10:51.033Z,2.00
2023-03-29T14:13:23.332Z,2.10
2023-03-29T14:15:55.447Z,2.00
2023-03-29T14:18:26.821Z,2.30
2023-03-29T14:20:56.284Z,2.30
2023-03-29T14:23:27.461Z,2.40
2023-03-29T14:26:06.230Z,2.30
2023-03-29T14:28:34.815Z,2.10
2023-03-29T14:31:03.720Z,2.20
2023-03-29T14:33:38.194Z,2.40
2023-03-29T14:36:07.210Z,2.50
2023-03-29T14:38:37.727Z,2.50
2023-03-29T14:41:06.544Z,2.30
2023-03-29T14:43:34.977Z,2.30
2023-03-29T14:46:06.462Z,2.50
2023-03-29T14:51:05.327Z,2.60
2023-03-29T14:53:37.343Z,3.80
2023-03-29T14:56:07.804Z,3.10
2023-03-29T14:58:36.916Z,2.70
2023-03-29T15:01:10.882Z,3.00
2023-03-29T15:03:44.193Z,2.80
2023-03-29T15:06:14.151Z,3.20
2023-03-29T15:08:54.106Z,2.90
2023-03-29T15:11:30.940Z,3.60
2023-03-29T15:14:08.914Z,3.00
2023-03-29T15:16:40.879Z,2.80
2023-03-29T15:19:27.557Z,3.10
2023-03-29T15:21:56.017Z,2.70
2023-03-29T15:24:31.216Z,2.60
2023-03-29T15:27:14.842Z,3.00
2023-03-29T15:29:46.511Z,3.20
2023-03-29T15:32:22.860Z,3.50
2023-03-29T15:35:08.140Z,3.70
2023-03-29T15:37:37.064Z,3.10
2023-03-29T15:40:09.880Z,2.60
2023-03-29T15:42:38.410Z,2.90
2023-03-29T15:45:07.484Z,3.10
2023-03-29T15:47:35.887Z,2.70
2023-03-29T15:50:04.531Z,3.40
2023-03-29T15:52:33.055Z,2.50
2023-03-29T15:55:01.633Z,3.10
2023-03-29T15:57:30.590Z,2.80
2023-03-29T15:59:59.304Z,2.50
2023-03-29T16:02:28.204Z,2.70
2023-03-29T16:04:56.752Z,2.50
2023-03-29T16:07:25.515Z,2.80
2023-03-29T16:09:53.857Z,2.70
2023-03-29T16:12:23.209Z,2.60
2023-03-29T16:14:51.772Z,2.60
2023-03-29T16:17:20.057Z,2.80
2023-03-29T16:19:48.349Z,2.90
2023-03-29T16:22:16.740Z,3.10
2023-03-29T16:24:45.086Z,2.80
2023-03-29T16:27:13.635Z,3.00
2023-03-29T16:29:42.213Z,2.90
2023-03-29T16:32:11.235Z,2.80
2023-03-29T16:34:41.488Z,3.40
2023-03-29T16:37:09.990Z,4.10
2023-03-29T16:39:38.491Z,3.80
2023-03-29T16:42:07.328Z,3.70
2023-03-29T16:44:35.852Z,4.30
2023-03-29T16:47:04.474Z,3.60
2023-03-29T16:49:32.844Z,3.00
2023-03-29T16:52:01.281Z,3.10
2023-03-29T16:54:31.828Z,2.90
2023-03-29T16:57:00.494Z,3.20
2023-03-29T16:59:28.833Z,3.20
2023-03-29T17:01:57.368Z,3.10
2023-03-29T17:04:26.510Z,3.70
2023-03-29T17:06:54.945Z,4.70
2023-03-29T17:09:23.301Z,4.50
2023-03-29T17:11:51.725Z,5.70
2023-03-29T17:14:20.554Z,6.50
2023-03-29T17:16:48.876Z,7.10
2023-03-29T17:19:17.315Z,6.90
2023-03-29T17:21:46.110Z,6.90
2023-03-29T17:24:14.576Z,9.50
2023-03-29T17:26:45.151Z,8.90
2023-03-29T17:29:14.267Z,13.00
2023-03-29T17:31:47.931Z,17.70
2023-03-29T17:34:19.192Z,16.10
2023-03-29T17:36:47.547Z,11.80
2023-03-29T17:39:16.173Z,10.20
2023-03-29T17:41:46.162Z,9.50
2023-03-29T17:44:14.516Z,12.10
2023-03-29T17:46:46.463Z,12.90
2023-03-29T17:49:15.194Z,12.10
2023-03-29T17:51:43.693Z,11.40
2023-03-29T17:54:13.001Z,11.40
2023-03-29T17:56:41.750Z,10.40
2023-03-29T17:59:10.095Z,12.00
2023-03-29T18:01:42.039Z,17.10
2023-03-29T18:04:10.644Z,15.80
2023-03-29T18:06:39.080Z,12.20
2023-03-29T18:09:07.880Z,11.20
2023-03-29T18:11:37.233Z,10.00
2023-03-29T18:14:05.804Z,10.00
2023-03-29T18:16:34.670Z,9.20
2023-03-29T18:19:03.370Z,8.10
2023-03-29T18:21:31.893Z,8.70
2023-03-29T18:24:00.535Z,8.20
2023-03-29T18:26:30.164Z,9.10
2023-03-29T18:28:58.900Z,8.60
2023-03-29T18:31:28.227Z,8.90
2023-03-29T18:33:57.044Z,8.10
2023-03-29T18:36:25.924Z,6.20
2023-03-29T18:38:55.992Z,5.90
2023-03-29T18:41:25.077Z,6.30
2023-03-29T18:43:58.057Z,5.90
2023-03-29T18:46:30.596Z,5.80
2023-03-29T18:49:00.275Z,5.70
2023-03-29T18:51:29.395Z,5.60
2023-03-29T18:53:57.839Z,6.10
2023-03-29T18:56:26.720Z,5.90
2023-03-29T18:58:55.230Z,6.50
2023-03-29T19:01:23.945Z,7.80
2023-03-29T19:03:52.446Z,9.00
2023-03-29T19:06:21.083Z,12.50
2023-03-29T19:08:49.422Z,14.80
2023-03-29T19:11:18.041Z,21.10
2023-03-29T19:13:50.243Z,17.30
2023-03-29T19:18:47.056Z,4.10
2023-03-29T19:21:15.903Z,4.50
2023-03-29T19:23:44.412Z,16.00
2023-03-29T19:26:13.553Z,16.60
2023-03-29T19:28:42.236Z,9.20
2023-03-29T19:31:10.995Z,6.00
2023-03-29T19:33:40.930Z,12.30
2023-03-29T19:36:09.794Z,6.00
2023-03-29T19:38:38.822Z,4.40
2023-03-29T19:41:09.737Z,4.30
2023-03-29T19:43:38.246Z,4.10
2023-03-29T19:46:09.699Z,3.90
2023-03-29T19:48:39.433Z,3.90
2023-03-29T19:51:08.129Z,4.10
2023-03-29T19:53:38.642Z,3.90
2023-03-29T19:56:10.963Z,3.40
2023-03-29T19:58:40.031Z,4.00
2023-03-29T20:01:08.598Z,3.70
2023-03-29T20:03:36.983Z,3.40
2023-03-29T20:06:05.881Z,3.40
2023-03-29T20:08:38.898Z,3.70
2023-03-29T20:11:10.646Z,3.50
2023-03-29T20:13:42.958Z,3.80
2023-03-29T20:16:13.964Z,3.80
2023-03-29T20:18:45.022Z,3.20
2023-03-29T20:21:16.943Z,3.10
2023-03-29T20:26:14.368Z,3.30
2023-03-29T20:28:43.055Z,5.10
2023-03-29T20:31:11.399Z,25.20
2023-03-29T20:33:41.523Z,29.40
2023-03-29T20:36:11.384Z,40.50
2023-03-29T20:38:39.882Z,37.20
2023-03-29T20:41:09.525Z,15.40
2023-03-29T20:43:38.395Z,3.40
2023-03-29T20:46:22.997Z,3.10
2023-03-29T20:48:54.461Z,3.60
2023-03-29T20:51:33.252Z,3.50
2023-03-29T20:54:05.068Z,4.10
2023-03-29T20:56:40.055Z,4.60
2023-03-29T20:59:12.466Z,4.10
2023-03-29T21:01:41.218Z,3.50
2023-03-29T21:04:11.075Z,4.60
2023-03-29T21:06:39.812Z,3.80
2023-03-29T21:09:08.708Z,4.30
2023-03-29T21:11:37.646Z,4.20
2023-03-29T21:14:06.075Z,4.10
2023-03-29T21:16:34.519Z,3.80
2023-03-29T21:19:02.979Z,3.80
2023-03-29T21:21:31.374Z,3.70
2023-03-29T21:23:59.748Z,3.30
2023-03-29T21:26:28.178Z,3.80
2023-03-29T21:28:56.524Z,3.70
2023-03-29T21:31:24.940Z,3.80
2023-03-29T21:33:56.345Z,3.30
2023-03-29T21:36:25.081Z,3.90
2023-03-29T21:38:53.617Z,3.80
2023-03-29T21:41:22.434Z,3.10
2023-03-29T21:43:50.896Z,4.80
2023-03-29T21:46:19.461Z,5.60
2023-03-29T21:48:47.958Z,6.40
2023-03-29T21:51:16.632Z,5.40
2023-03-29T21:53:44.865Z,4.80
2023-03-29T21:56:13.515Z,5.30
2023-03-29T21:58:42.682Z,4.60
2023-03-29T22:01:11.197Z,4.70
2023-03-29T22:03:39.829Z,5.60
2023-03-29T22:06:09.758Z,5.30
2023-03-29T22:08:40.902Z,5.50
2023-03-29T22:11:11.610Z,5.90
2023-03-29T22:13:41.204Z,6.20
2023-03-29T22:16:16.797Z,6.10
2023-03-29T22:18:49.705Z,5.20
2023-03-29T22:21:31.300Z,4.80
2023-03-29T22:24:01.352Z,5.40
2023-03-29T22:26:32.430Z,5.10
2023-03-29T22:29:01.709Z,5.50
2023-03-29T22:31:31.707Z,5.60
2023-03-29T22:34:02.300Z,5.60
2023-03-29T22:36:31.963Z,5.50
2023-03-29T22:39:00.826Z,5.20
2023-03-29T22:41:29.144Z,15.70
2023-03-29T22:43:58.878Z,29.60
2023-03-29T22:46:27.878Z,74.80
2023-03-29T22:48:56.634Z,23.40
2023-03-29T22:51:25.383Z,6.00
2023-03-29T22:53:53.802Z,4.70
2023-03-29T22:56:22.217Z,5.10
2023-03-29T22:58:51.189Z,5.00
2023-03-29T23:01:19.819Z,4.90
2023-03-29T23:03:48.387Z,4.40
2023-03-29T23:06:16.894Z,4.70
2023-03-29T23:08:45.351Z,6.40
2023-03-29T23:11:13.766Z,6.90
2023-03-29T23:13:42.320Z,6.40
2023-03-29T23:16:11.347Z,7.30
2023-03-29T23:18:39.702Z,6.90
2023-03-29T23:21:10.602Z,7.50
2023-03-29T23:23:39.541Z,8.40
2023-03-29T23:26:12.067Z,8.50
2023-03-29T23:28:41.304Z,9.20
2023-03-29T23:31:12.136Z,9.90
2023-03-29T23:33:43.006Z,9.90
2023-03-29T23:36:15.223Z,9.50
2023-03-29T23:41:14.147Z,8.90
2023-03-29T23:43:44.126Z,9.20
2023-03-29T23:46:16.065Z,8.90
2023-03-29T23:51:15.489Z,9.40
2023-03-29T23:53:44.215Z,9.80
2023-03-29T23:56:12.693Z,9.20
2023-03-29T23:58:41.373Z,9.60
